sensor_id;sensor_type;location;lat;lon;timestamp;P1;durP1;ratioP1;P2;durP2;ratioP2
8225;SDS011;4154;48.810;9.012;2024-02-15T00:00:27;3.80;;;1.60;;
8225;SDS011;4154;48.810;9.012;2024-02-15T00:02:53;2.20;;;1.37;;
8225;SDS011;4154;48.810;9.012;2024-02-15T00:05:19;2.33;;;1.50;;
8225;SDS011;4154;48.810;9.012;2024-02-15T00:07:44;1.90;;;1.53;;
8225;SDS011;4154;48.810;9.012;2024-02-15T00:10:13;2.07;;;1.60;;
8225;SDS011;4154;48.810;9.012;2024-02-15T00:12:39;2.30;;;1.50;;
8225;SDS011;4154;48.810;9.012;2024-02-15T00:15:05;1.47;;;1.37;;
8225;SDS011;4154;48.810;9.012;2024-02-15T00:17:31;3.27;;;1.63;;
8225;SDS011;4154;48.810;9.012;2024-02-15T00:19:57;2.90;;;1.63;;
8225;SDS011;4154;48.810;9.012;2024-02-15T00:22:24;1.93;;;1.70;;
8225;SDS011;4154;48.810;9.012;2024-02-15T00:24:50;1.73;;;1.50;;
8225;SDS011;4154;48.810;9.012;2024-02-15T00:27:16;2.07;;;1.57;;
8225;SDS011;4154;48.810;9.012;2024-02-15T00:29:42;2.33;;;1.40;;
8225;SDS011;4154;48.810;9.012;2024-02-15T00:32:08;2.63;;;1.50;;
8225;SDS011;4154;48.810;9.012;2024-02-15T00:34:35;1.90;;;1.40;;
8225;SDS011;4154;48.810;9.012;2024-02-15T00:37:03;3.27;;;1.40;;
8225;SDS011;4154;48.810;9.012;2024-02-15T00:39:30;1.50;;;1.40;;
8225;SDS011;4154;48.810;9.012;2024-02-15T00:41:56;3.03;;;2.00;;
8225;SDS011;4154;48.810;9.012;2024-02-15T00:44:25;1.90;;;1.50;;
8225;SDS011;4154;48.810;9.012;2024-02-15T00:46:53;1.67;;;1.43;;
8225;SDS011;4154;48.810;9.012;2024-02-15T00:49:19;2.03;;;1.50;;
8225;SDS011;4154;48.810;9.012;2024-02-15T00:51:45;1.87;;;1.60;;
8225;SDS011;4154;48.810;9.012;2024-02-15T00:54:11;2.60;;;1.57;;
8225;SDS011;4154;48.810;9.012;2024-02-15T00:56:37;2.67;;;1.60;;
8225;SDS011;4154;48.810;9.012;2024-02-15T00:59:03;1.77;;;1.40;;
8225;SDS011;4154;48.810;9.012;2024-02-15T01:01:30;2.43;;;1.50;;
8225;SDS011;4154;48.810;9.012;2024-02-15T01:03:56;2.30;;;1.70;;
8225;SDS011;4154;48.810;9.012;2024-02-15T01:06:21;1.97;;;1.60;;
8225;SDS011;4154;48.810;9.012;2024-02-15T01:08:47;2.33;;;1.47;;
8225;SDS011;4154;48.810;9.012;2024-02-15T01:11:12;2.80;;;1.80;;
8225;SDS011;4154;48.810;9.012;2024-02-15T01:13:38;3.20;;;1.70;;
8225;SDS011;4154;48.810;9.012;2024-02-15T01:16:05;2.77;;;1.67;;
8225;SDS011;4154;48.810;9.012;2024-02-15T01:18:31;3.00;;;1.50;;
8225;SDS011;4154;48.810;9.012;2024-02-15T01:20:57;2.63;;;1.63;;
8225;SDS011;4154;48.810;9.012;2024-02-15T01:23:23;2.07;;;1.70;;
8225;SDS011;4154;48.810;9.012;2024-02-15T01:25:50;2.07;;;1.60;;
8225;SDS011;4154;48.810;9.012;2024-02-15T01:28:17;1.47;;;1.37;;
8225;SDS011;4154;48.810;9.012;2024-02-15T01:30:43;2.77;;;1.70;;
8225;SDS011;4154;48.810;9.012;2024-02-15T01:33:09;1.80;;;1.40;;
8225;SDS011;4154;48.810;9.012;2024-02-15T01:35:36;3.63;;;1.83;;
8225;SDS011;4154;48.810;9.012;2024-02-15T01:38:02;2.63;;;1.60;;
8225;SDS011;4154;48.810;9.012;2024-02-15T01:40:28;2.10;;;1.53;;
8225;SDS011;4154;48.810;9.012;2024-02-15T01:42:54;1.80;;;1.50;;
8225;SDS011;4154;48.810;9.012;2024-02-15T01:45:20;2.83;;;1.60;;
8225;SDS011;4154;48.810;9.012;2024-02-15T01:47:47;1.90;;;1.50;;
8225;SDS011;4154;48.810;9.012;2024-02-15T01:50:14;1.63;;;1.53;;
8225;SDS011;4154;48.810;9.012;2024-02-15T01:52:42;1.60;;;1.50;;
8225;SDS011;4154;48.810;9.012;2024-02-15T01:55:12;2.50;;;1.87;;
8225;SDS011;4154;48.810;9.012;2024-02-15T01:57:40;1.60;;;1.50;;
8225;SDS011;4154;48.810;9.012;2024-02-15T02:00:12;2.83;;;1.67;;
8225;SDS011;4154;48.810;9.012;2024-02-15T02:02:41;2.20;;;1.50;;
8225;SDS011;4154;48.810;9.012;2024-02-15T02:05:09;2.73;;;1.83;;
8225;SDS011;4154;48.810;9.012;2024-02-15T02:07:35;1.70;;;1.60;;
8225;SDS011;4154;48.810;9.012;2024-02-15T02:10:02;2.73;;;1.57;;
8225;SDS011;4154;48.810;9.012;2024-02-15T02:12:28;2.70;;;1.70;;
8225;SDS011;4154;48.810;9.012;2024-02-15T02:14:54;3.23;;;1.80;;
8225;SDS011;4154;48.810;9.012;2024-02-15T02:17:20;2.10;;;1.80;;
8225;SDS011;4154;48.810;9.012;2024-02-15T02:19:46;2.80;;;1.60;;
8225;SDS011;4154;48.810;9.012;2024-02-15T02:22:14;2.20;;;1.67;;
8225;SDS011;4154;48.810;9.012;2024-02-15T02:27:33;3.90;;;1.90;;
8225;SDS011;4154;48.810;9.012;2024-02-15T02:30:04;2.67;;;1.70;;
8225;SDS011;4154;48.810;9.012;2024-02-15T02:32:39;2.03;;;1.50;;
8225;SDS011;4154;48.810;9.012;2024-02-15T02:35:08;2.17;;;1.97;;
8225;SDS011;4154;48.810;9.012;2024-02-15T02:37:36;2.30;;;1.60;;
8225;SDS011;4154;48.810;9.012;2024-02-15T02:40:04;2.53;;;1.70;;
8225;SDS011;4154;48.810;9.012;2024-02-15T02:42:33;3.20;;;1.90;;
8225;SDS011;4154;48.810;9.012;2024-02-15T02:45:01;2.60;;;1.70;;
8225;SDS011;4154;48.810;9.012;2024-02-15T02:47:27;2.33;;;1.70;;
8225;SDS011;4154;48.810;9.012;2024-02-15T02:49:52;2.47;;;1.70;;
8225;SDS011;4154;48.810;9.012;2024-02-15T02:52:18;1.97;;;1.80;;
8225;SDS011;4154;48.810;9.012;2024-02-15T02:54:44;2.93;;;1.90;;
8225;SDS011;4154;48.810;9.012;2024-02-15T02:57:09;2.60;;;1.50;;
8225;SDS011;4154;48.810;9.012;2024-02-15T02:59:35;2.87;;;1.70;;
8225;SDS011;4154;48.810;9.012;2024-02-15T03:02:01;1.97;;;1.60;;
8225;SDS011;4154;48.810;9.012;2024-02-15T03:04:28;1.50;;;1.40;;
8225;SDS011;4154;48.810;9.012;2024-02-15T03:06:54;2.70;;;1.80;;
8225;SDS011;4154;48.810;9.012;2024-02-15T03:09:22;2.00;;;1.80;;
8225;SDS011;4154;48.810;9.012;2024-02-15T03:11:47;1.93;;;1.70;;
8225;SDS011;4154;48.810;9.012;2024-02-15T03:14:14;2.33;;;1.73;;
8225;SDS011;4154;48.810;9.012;2024-02-15T03:16:40;2.70;;;1.80;;
8225;SDS011;4154;48.810;9.012;2024-02-15T03:19:05;2.70;;;1.67;;
8225;SDS011;4154;48.810;9.012;2024-02-15T03:21:34;1.83;;;1.53;;
8225;SDS011;4154;48.810;9.012;2024-02-15T03:23:59;2.03;;;1.60;;
8225;SDS011;4154;48.810;9.012;2024-02-15T03:26:31;2.37;;;1.80;;
8225;SDS011;4154;48.810;9.012;2024-02-15T03:29:01;4.10;;;1.97;;
8225;SDS011;4154;48.810;9.012;2024-02-15T03:31:28;2.20;;;1.80;;
8225;SDS011;4154;48.810;9.012;2024-02-15T03:33:55;2.27;;;1.80;;
8225;SDS011;4154;48.810;9.012;2024-02-15T03:36:24;2.67;;;1.90;;
8225;SDS011;4154;48.810;9.012;2024-02-15T03:38:49;2.83;;;1.80;;
8225;SDS011;4154;48.810;9.012;2024-02-15T03:41:17;2.13;;;1.67;;
8225;SDS011;4154;48.810;9.012;2024-02-15T03:43:43;1.87;;;1.60;;
8225;SDS011;4154;48.810;9.012;2024-02-15T03:46:09;2.63;;;1.87;;
8225;SDS011;4154;48.810;9.012;2024-02-15T03:48:37;2.50;;;1.83;;
8225;SDS011;4154;48.810;9.012;2024-02-15T03:51:03;1.90;;;1.73;;
8225;SDS011;4154;48.810;9.012;2024-02-15T03:53:29;2.90;;;1.90;;
8225;SDS011;4154;48.810;9.012;2024-02-15T03:55:56;1.93;;;1.77;;
8225;SDS011;4154;48.810;9.012;2024-02-15T03:58:22;3.00;;;1.73;;
8225;SDS011;4154;48.810;9.012;2024-02-15T04:00:47;2.90;;;1.87;;
8225;SDS011;4154;48.810;9.012;2024-02-15T04:03:13;2.97;;;1.70;;
8225;SDS011;4154;48.810;9.012;2024-02-15T04:05:39;2.57;;;1.80;;
8225;SDS011;4154;48.810;9.012;2024-02-15T04:08:05;2.30;;;1.90;;
8225;SDS011;4154;48.810;9.012;2024-02-15T04:10:31;2.73;;;1.90;;
8225;SDS011;4154;48.810;9.012;2024-02-15T04:12:56;1.67;;;1.50;;
8225;SDS011;4154;48.810;9.012;2024-02-15T04:15:23;2.50;;;1.90;;
8225;SDS011;4154;48.810;9.012;2024-02-15T04:17:49;2.23;;;1.80;;
8225;SDS011;4154;48.810;9.012;2024-02-15T04:20:20;2.60;;;2.00;;
8225;SDS011;4154;48.810;9.012;2024-02-15T04:22:47;2.13;;;1.93;;
8225;SDS011;4154;48.810;9.012;2024-02-15T04:25:15;2.40;;;1.83;;
8225;SDS011;4154;48.810;9.012;2024-02-15T04:27:44;3.73;;;1.90;;
8225;SDS011;4154;48.810;9.012;2024-02-15T04:30:14;1.60;;;1.50;;
8225;SDS011;4154;48.810;9.012;2024-02-15T04:32:40;2.33;;;1.77;;
8225;SDS011;4154;48.810;9.012;2024-02-15T04:35:06;2.00;;;1.80;;
8225;SDS011;4154;48.810;9.012;2024-02-15T04:37:32;2.53;;;1.90;;
8225;SDS011;4154;48.810;9.012;2024-02-15T04:39:59;2.13;;;1.70;;
8225;SDS011;4154;48.810;9.012;2024-02-15T04:42:32;2.30;;;1.80;;
8225;SDS011;4154;48.810;9.012;2024-02-15T04:44:59;1.73;;;1.63;;
8225;SDS011;4154;48.810;9.012;2024-02-15T04:47:26;1.80;;;1.40;;
8225;SDS011;4154;48.810;9.012;2024-02-15T04:49:51;1.97;;;1.70;;
8225;SDS011;4154;48.810;9.012;2024-02-15T04:52:17;1.87;;;1.63;;
8225;SDS011;4154;48.810;9.012;2024-02-15T04:54:42;2.17;;;1.63;;
8225;SDS011;4154;48.810;9.012;2024-02-15T04:57:09;1.90;;;1.70;;
8225;SDS011;4154;48.810;9.012;2024-02-15T04:59:36;3.13;;;2.10;;
8225;SDS011;4154;48.810;9.012;2024-02-15T05:02:02;2.57;;;1.93;;
8225;SDS011;4154;48.810;9.012;2024-02-15T05:04:28;3.03;;;1.90;;
8225;SDS011;4154;48.810;9.012;2024-02-15T05:06:54;2.00;;;1.60;;
8225;SDS011;4154;48.810;9.012;2024-02-15T05:09:21;2.07;;;1.87;;
8225;SDS011;4154;48.810;9.012;2024-02-15T05:11:47;1.80;;;1.43;;
8225;SDS011;4154;48.810;9.012;2024-02-15T05:14:14;1.73;;;1.60;;
8225;SDS011;4154;48.810;9.012;2024-02-15T05:16:47;2.83;;;1.83;;
8225;SDS011;4154;48.810;9.012;2024-02-15T05:19:14;2.70;;;1.90;;
8225;SDS011;4154;48.810;9.012;2024-02-15T05:21:41;2.63;;;1.83;;
8225;SDS011;4154;48.810;9.012;2024-02-15T05:24:10;1.83;;;1.60;;
8225;SDS011;4154;48.810;9.012;2024-02-15T05:26:40;2.93;;;1.73;;
8225;SDS011;4154;48.810;9.012;2024-02-15T05:29:16;2.53;;;1.80;;
8225;SDS011;4154;48.810;9.012;2024-02-15T05:31:42;2.50;;;1.90;;
8225;SDS011;4154;48.810;9.012;2024-02-15T05:34:07;2.80;;;1.90;;
8225;SDS011;4154;48.810;9.012;2024-02-15T05:36:36;3.03;;;1.90;;
8225;SDS011;4154;48.810;9.012;2024-02-15T05:39:03;2.07;;;1.63;;
8225;SDS011;4154;48.810;9.012;2024-02-15T05:41:30;1.87;;;1.77;;
8225;SDS011;4154;48.810;9.012;2024-02-15T05:43:57;3.07;;;1.83;;
8225;SDS011;4154;48.810;9.012;2024-02-15T05:46:24;1.90;;;1.70;;
8225;SDS011;4154;48.810;9.012;2024-02-15T05:48:50;2.43;;;1.67;;
8225;SDS011;4154;48.810;9.012;2024-02-15T05:51:18;3.63;;;1.80;;
8225;SDS011;4154;48.810;9.012;2024-02-15T05:53:44;2.50;;;1.80;;
8225;SDS011;4154;48.810;9.012;2024-02-15T05:56:10;2.80;;;1.80;;
8225;SDS011;4154;48.810;9.012;2024-02-15T05:58:37;4.60;;;2.17;;
8225;SDS011;4154;48.810;9.012;2024-02-15T06:01:04;2.30;;;1.80;;
8225;SDS011;4154;48.810;9.012;2024-02-15T06:03:31;2.67;;;1.93;;
8225;SDS011;4154;48.810;9.012;2024-02-15T06:06:00;3.87;;;2.10;;
8225;SDS011;4154;48.810;9.012;2024-02-15T06:08:31;2.40;;;1.83;;
8225;SDS011;4154;48.810;9.012;2024-02-15T06:10:57;3.80;;;2.17;;
8225;SDS011;4154;48.810;9.012;2024-02-15T06:13:24;2.87;;;1.90;;
8225;SDS011;4154;48.810;9.012;2024-02-15T06:15:51;1.80;;;1.70;;
8225;SDS011;4154;48.810;9.012;2024-02-15T06:18:19;3.10;;;1.90;;
8225;SDS011;4154;48.810;9.012;2024-02-15T06:20:52;3.43;;;2.10;;
8225;SDS011;4154;48.810;9.012;2024-02-15T06:23:19;2.87;;;1.83;;
8225;SDS011;4154;48.810;9.012;2024-02-15T06:25:50;2.33;;;1.80;;
8225;SDS011;4154;48.810;9.012;2024-02-15T06:28:18;3.47;;;2.10;;
8225;SDS011;4154;48.810;9.012;2024-02-15T06:31:05;3.47;;;2.10;;
8225;SDS011;4154;48.810;9.012;2024-02-15T06:33:52;2.30;;;2.10;;
8225;SDS011;4154;48.810;9.012;2024-02-15T06:36:40;3.23;;;2.07;;
8225;SDS011;4154;48.810;9.012;2024-02-15T06:39:32;3.67;;;1.90;;
8225;SDS011;4154;48.810;9.012;2024-02-15T06:42:07;3.30;;;2.00;;
8225;SDS011;4154;48.810;9.012;2024-02-15T06:44:41;4.17;;;2.20;;
8225;SDS011;4154;48.810;9.012;2024-02-15T06:47:07;2.57;;;1.80;;
8225;SDS011;4154;48.810;9.012;2024-02-15T06:49:36;1.83;;;1.70;;
8225;SDS011;4154;48.810;9.012;2024-02-15T06:52:08;1.83;;;1.73;;
8225;SDS011;4154;48.810;9.012;2024-02-15T06:54:36;2.83;;;2.00;;
8225;SDS011;4154;48.810;9.012;2024-02-15T06:57:06;2.17;;;1.87;;
8225;SDS011;4154;48.810;9.012;2024-02-15T06:59:32;2.23;;;1.80;;
8225;SDS011;4154;48.810;9.012;2024-02-15T07:01:59;2.53;;;1.90;;
8225;SDS011;4154;48.810;9.012;2024-02-15T07:04:30;2.83;;;1.90;;
8225;SDS011;4154;48.810;9.012;2024-02-15T07:06:57;2.93;;;1.93;;
8225;SDS011;4154;48.810;9.012;2024-02-15T07:09:24;2.83;;;1.83;;
8225;SDS011;4154;48.810;9.012;2024-02-15T07:11:50;2.67;;;1.97;;
8225;SDS011;4154;48.810;9.012;2024-02-15T07:14:17;3.27;;;2.10;;
8225;SDS011;4154;48.810;9.012;2024-02-15T07:16:46;3.63;;;1.90;;
8225;SDS011;4154;48.810;9.012;2024-02-15T07:19:14;2.87;;;2.00;;
8225;SDS011;4154;48.810;9.012;2024-02-15T07:21:40;2.57;;;1.77;;
8225;SDS011;4154;48.810;9.012;2024-02-15T07:24:06;2.23;;;1.90;;
8225;SDS011;4154;48.810;9.012;2024-02-15T07:26:32;2.63;;;2.17;;
8225;SDS011;4154;48.810;9.012;2024-02-15T07:29:00;2.50;;;2.23;;
8225;SDS011;4154;48.810;9.012;2024-02-15T07:31:29;3.37;;;1.90;;
8225;SDS011;4154;48.810;9.012;2024-02-15T07:33:55;3.17;;;2.03;;
8225;SDS011;4154;48.810;9.012;2024-02-15T07:36:21;5.27;;;2.13;;
8225;SDS011;4154;48.810;9.012;2024-02-15T07:38:48;3.20;;;2.10;;
8225;SDS011;4154;48.810;9.012;2024-02-15T07:41:17;6.37;;;2.40;;
8225;SDS011;4154;48.810;9.012;2024-02-15T07:43:47;3.67;;;2.70;;
8225;SDS011;4154;48.810;9.012;2024-02-15T07:46:16;3.87;;;2.30;;
8225;SDS011;4154;48.810;9.012;2024-02-15T07:48:45;4.63;;;2.57;;
8225;SDS011;4154;48.810;9.012;2024-02-15T07:51:14;4.20;;;2.40;;
8225;SDS011;4154;48.810;9.012;2024-02-15T07:53:43;2.37;;;2.17;;
8225;SDS011;4154;48.810;9.012;2024-02-15T07:56:09;2.40;;;2.20;;
8225;SDS011;4154;48.810;9.012;2024-02-15T07:58:39;3.03;;;2.20;;
8225;SDS011;4154;48.810;9.012;2024-02-15T08:01:12;3.03;;;2.40;;
8225;SDS011;4154;48.810;9.012;2024-02-15T08:03:39;3.03;;;2.20;;
8225;SDS011;4154;48.810;9.012;2024-02-15T08:06:11;3.37;;;2.10;;
8225;SDS011;4154;48.810;9.012;2024-02-15T08:08:47;2.43;;;2.10;;
8225;SDS011;4154;48.810;9.012;2024-02-15T08:11:16;4.93;;;2.40;;
8225;SDS011;4154;48.810;9.012;2024-02-15T08:13:44;2.80;;;2.20;;
8225;SDS011;4154;48.810;9.012;2024-02-15T08:16:14;3.67;;;2.03;;
8225;SDS011;4154;48.810;9.012;2024-02-15T08:18:44;2.77;;;2.00;;
8225;SDS011;4154;48.810;9.012;2024-02-15T08:21:11;3.00;;;2.00;;
8225;SDS011;4154;48.810;9.012;2024-02-15T08:23:37;3.93;;;2.33;;
8225;SDS011;4154;48.810;9.012;2024-02-15T08:26:03;2.30;;;2.10;;
8225;SDS011;4154;48.810;9.012;2024-02-15T08:28:29;2.37;;;1.90;;
8225;SDS011;4154;48.810;9.012;2024-02-15T08:30:55;3.60;;;2.30;;
8225;SDS011;4154;48.810;9.012;2024-02-15T08:33:22;3.77;;;2.10;;
8225;SDS011;4154;48.810;9.012;2024-02-15T08:35:48;4.40;;;2.30;;
8225;SDS011;4154;48.810;9.012;2024-02-15T08:38:14;2.90;;;2.03;;
8225;SDS011;4154;48.810;9.012;2024-02-15T08:40:40;3.43;;;2.20;;
8225;SDS011;4154;48.810;9.012;2024-02-15T08:43:05;2.37;;;2.00;;
8225;SDS011;4154;48.810;9.012;2024-02-15T08:45:31;3.70;;;2.03;;
8225;SDS011;4154;48.810;9.012;2024-02-15T08:47:57;2.93;;;2.30;;
8225;SDS011;4154;48.810;9.012;2024-02-15T08:50:22;3.40;;;1.93;;
8225;SDS011;4154;48.810;9.012;2024-02-15T08:52:48;3.17;;;2.20;;
8225;SDS011;4154;48.810;9.012;2024-02-15T08:55:14;2.23;;;2.00;;
8225;SDS011;4154;48.810;9.012;2024-02-15T08:57:41;2.70;;;2.10;;
8225;SDS011;4154;48.810;9.012;2024-02-15T09:00:10;2.30;;;2.00;;
8225;SDS011;4154;48.810;9.012;2024-02-15T09:02:40;3.00;;;2.10;;
8225;SDS011;4154;48.810;9.012;2024-02-15T09:05:10;3.17;;;2.10;;
8225;SDS011;4154;48.810;9.012;2024-02-15T09:07:39;3.03;;;2.03;;
8225;SDS011;4154;48.810;9.012;2024-02-15T09:10:09;4.13;;;2.20;;
8225;SDS011;4154;48.810;9.012;2024-02-15T09:12:36;2.30;;;2.10;;
8225;SDS011;4154;48.810;9.012;2024-02-15T09:15:04;2.17;;;1.97;;
8225;SDS011;4154;48.810;9.012;2024-02-15T09:17:32;2.83;;;2.10;;
8225;SDS011;4154;48.810;9.012;2024-02-15T09:20:03;3.80;;;2.30;;
8225;SDS011;4154;48.810;9.012;2024-02-15T09:22:34;2.90;;;2.30;;
8225;SDS011;4154;48.810;9.012;2024-02-15T09:25:01;4.57;;;2.33;;
8225;SDS011;4154;48.810;9.012;2024-02-15T09:27:28;3.30;;;2.33;;
8225;SDS011;4154;48.810;9.012;2024-02-15T09:29:53;4.00;;;2.20;;
8225;SDS011;4154;48.810;9.012;2024-02-15T09:32:20;3.30;;;2.10;;
8225;SDS011;4154;48.810;9.012;2024-02-15T09:34:47;3.70;;;2.17;;
8225;SDS011;4154;48.810;9.012;2024-02-15T09:37:14;2.33;;;1.87;;
8225;SDS011;4154;48.810;9.012;2024-02-15T09:39:40;3.63;;;2.17;;
8225;SDS011;4154;48.810;9.012;2024-02-15T09:42:06;3.97;;;2.20;;
8225;SDS011;4154;48.810;9.012;2024-02-15T09:44:32;4.70;;;2.03;;
8225;SDS011;4154;48.810;9.012;2024-02-15T09:47:04;2.83;;;2.20;;
8225;SDS011;4154;48.810;9.012;2024-02-15T09:49:37;3.90;;;2.27;;
8225;SDS011;4154;48.810;9.012;2024-02-15T09:52:07;2.77;;;2.17;;
8225;SDS011;4154;48.810;9.012;2024-02-15T09:54:40;3.53;;;2.07;;
8225;SDS011;4154;48.810;9.012;2024-02-15T09:57:08;2.70;;;1.90;;
8225;SDS011;4154;48.810;9.012;2024-02-15T09:59:38;2.37;;;1.80;;
8225;SDS011;4154;48.810;9.012;2024-02-15T10:02:05;2.60;;;1.83;;
8225;SDS011;4154;48.810;9.012;2024-02-15T10:04:36;2.55;;;1.90;;
8225;SDS011;4154;48.810;9.012;2024-02-15T10:07:05;3.63;;;1.97;;
8225;SDS011;4154;48.810;9.012;2024-02-15T10:09:33;2.15;;;1.92;;
8225;SDS011;4154;48.810;9.012;2024-02-15T10:12:02;3.37;;;2.10;;
8225;SDS011;4154;48.810;9.012;2024-02-15T10:14:31;4.13;;;2.10;;
8225;SDS011;4154;48.810;9.012;2024-02-15T10:17:04;2.65;;;1.90;;
8225;SDS011;4154;48.810;9.012;2024-02-15T10:19:34;5.18;;;2.00;;
8225;SDS011;4154;48.810;9.012;2024-02-15T10:22:07;2.55;;;1.75;;
8225;SDS011;4154;48.810;9.012;2024-02-15T10:24:34;2.92;;;1.92;;
8225;SDS011;4154;48.810;9.012;2024-02-15T10:27:02;2.45;;;1.63;;
8225;SDS011;4154;48.810;9.012;2024-02-15T10:29:29;3.15;;;1.70;;
8225;SDS011;4154;48.810;9.012;2024-02-15T10:31:56;3.95;;;1.40;;
8225;SDS011;4154;48.810;9.012;2024-02-15T10:34:26;4.30;;;1.60;;
8225;SDS011;4154;48.810;9.012;2024-02-15T10:36:53;2.42;;;1.60;;
8225;SDS011;4154;48.810;9.012;2024-02-15T10:39:21;1.65;;;1.20;;
8225;SDS011;4154;48.810;9.012;2024-02-15T10:44:23;2.70;;;1.33;;
8225;SDS011;4154;48.810;9.012;2024-02-15T10:46:51;1.30;;;1.00;;
8225;SDS011;4154;48.810;9.012;2024-02-15T10:51:54;0.70;;;0.70;;
8225;SDS011;4154;48.810;9.012;2024-02-15T10:56:59;1.20;;;0.90;;
8225;SDS011;4154;48.810;9.012;2024-02-15T10:59:31;2.33;;;1.15;;
8225;SDS011;4154;48.810;9.012;2024-02-15T11:02:02;2.03;;;0.98;;
8225;SDS011;4154;48.810;9.012;2024-02-15T11:05:02;2.08;;;0.90;;
8225;SDS011;4154;48.810;9.012;2024-02-15T11:07:35;2.50;;;1.30;;
8225;SDS011;4154;48.810;9.012;2024-02-15T11:10:05;2.13;;;1.10;;
8225;SDS011;4154;48.810;9.012;2024-02-15T11:12:33;1.13;;;0.90;;
8225;SDS011;4154;48.810;9.012;2024-02-15T11:15:00;1.50;;;0.90;;
8225;SDS011;4154;48.810;9.012;2024-02-15T11:20:07;1.65;;;1.10;;
8225;SDS011;4154;48.810;9.012;2024-02-15T11:22:35;1.25;;;0.90;;
8225;SDS011;4154;48.810;9.012;2024-02-15T11:25:02;2.47;;;0.98;;
8225;SDS011;4154;48.810;9.012;2024-02-15T11:27:48;3.30;;;1.30;;
8225;SDS011;4154;48.810;9.012;2024-02-15T11:30:15;2.00;;;1.50;;
8225;SDS011;4154;48.810;9.012;2024-02-15T11:32:57;2.33;;;1.42;;
8225;SDS011;4154;48.810;9.012;2024-02-15T11:35:23;1.60;;;1.25;;
8225;SDS011;4154;48.810;9.012;2024-02-15T11:40:27;1.35;;;1.10;;
8225;SDS011;4154;48.810;9.012;2024-02-15T11:46:08;2.35;;;1.30;;
8225;SDS011;4154;48.810;9.012;2024-02-15T11:48:38;1.83;;;1.27;;
8225;SDS011;4154;48.810;9.012;2024-02-15T11:51:04;2.40;;;1.30;;
8225;SDS011;4154;48.810;9.012;2024-02-15T11:53:36;2.85;;;1.20;;
8225;SDS011;4154;48.810;9.012;2024-02-15T11:56:02;1.50;;;1.02;;
8225;SDS011;4154;48.810;9.012;2024-02-15T11:58:34;1.75;;;1.27;;
8225;SDS011;4154;48.810;9.012;2024-02-15T12:01:17;1.75;;;1.20;;
8225;SDS011;4154;48.810;9.012;2024-02-15T12:04:02;1.83;;;1.00;;
8225;SDS011;4154;48.810;9.012;2024-02-15T12:06:47;2.38;;;1.40;;
8225;SDS011;4154;48.810;9.012;2024-02-15T12:09:31;2.10;;;1.05;;
8225;SDS011;4154;48.810;9.012;2024-02-15T12:12:15;1.38;;;0.90;;
8225;SDS011;4154;48.810;9.012;2024-02-15T12:15:03;2.10;;;1.25;;
8225;SDS011;4154;48.810;9.012;2024-02-15T12:17:47;1.45;;;1.08;;
8225;SDS011;4154;48.810;9.012;2024-02-15T12:20:32;2.03;;;1.00;;
8225;SDS011;4154;48.810;9.012;2024-02-15T12:22:59;1.25;;;0.80;;
8225;SDS011;4154;48.810;9.012;2024-02-15T12:25:27;1.73;;;0.88;;
8225;SDS011;4154;48.810;9.012;2024-02-15T12:27:54;2.17;;;0.90;;
8225;SDS011;4154;48.810;9.012;2024-02-15T12:30:21;4.47;;;1.30;;
8225;SDS011;4154;48.810;9.012;2024-02-15T12:32:51;2.85;;;1.20;;
8225;SDS011;4154;48.810;9.012;2024-02-15T12:35:21;1.10;;;1.00;;
8225;SDS011;4154;48.810;9.012;2024-02-15T12:40:29;2.20;;;1.17;;
8225;SDS011;4154;48.810;9.012;2024-02-15T12:42:57;1.48;;;1.20;;
8225;SDS011;4154;48.810;9.012;2024-02-15T12:45:25;2.50;;;1.10;;
8225;SDS011;4154;48.810;9.012;2024-02-15T12:47:53;1.90;;;1.30;;
8225;SDS011;4154;48.810;9.012;2024-02-15T12:50:20;2.40;;;1.40;;
8225;SDS011;4154;48.810;9.012;2024-02-15T12:52:48;1.90;;;1.30;;
8225;SDS011;4154;48.810;9.012;2024-02-15T12:55:24;2.00;;;1.15;;
8225;SDS011;4154;48.810;9.012;2024-02-15T12:57:51;2.30;;;1.30;;
8225;SDS011;4154;48.810;9.012;2024-02-15T13:00:21;1.48;;;1.00;;
8225;SDS011;4154;48.810;9.012;2024-02-15T13:02:53;3.28;;;1.10;;
8225;SDS011;4154;48.810;9.012;2024-02-15T13:05:21;1.80;;;1.00;;
8225;SDS011;4154;48.810;9.012;2024-02-15T13:07:49;2.30;;;1.10;;
8225;SDS011;4154;48.810;9.012;2024-02-15T13:10:17;2.78;;;1.02;;
8225;SDS011;4154;48.810;9.012;2024-02-15T13:12:43;2.50;;;1.15;;
8225;SDS011;4154;48.810;9.012;2024-02-15T13:15:14;2.33;;;1.20;;
8225;SDS011;4154;48.810;9.012;2024-02-15T13:17:45;1.30;;;1.20;;
8225;SDS011;4154;48.810;9.012;2024-02-15T13:20:16;1.58;;;1.20;;
8225;SDS011;4154;48.810;9.012;2024-02-15T13:22:45;1.70;;;1.00;;
8225;SDS011;4154;48.810;9.012;2024-02-15T13:25:13;1.92;;;1.00;;
8225;SDS011;4154;48.810;9.012;2024-02-15T13:27:41;2.58;;;1.00;;
8225;SDS011;4154;48.810;9.012;2024-02-15T13:30:08;1.02;;;0.85;;
8225;SDS011;4154;48.810;9.012;2024-02-15T13:32:35;2.10;;;1.25;;
8225;SDS011;4154;48.810;9.012;2024-02-15T13:35:03;1.85;;;1.10;;
8225;SDS011;4154;48.810;9.012;2024-02-15T13:37:40;1.92;;;1.20;;
8225;SDS011;4154;48.810;9.012;2024-02-15T13:40:13;2.35;;;1.40;;
8225;SDS011;4154;48.810;9.012;2024-02-15T13:45:14;1.17;;;0.90;;
8225;SDS011;4154;48.810;9.012;2024-02-15T13:47:43;3.25;;;1.20;;
8225;SDS011;4154;48.810;9.012;2024-02-15T13:50:13;2.13;;;1.20;;
8225;SDS011;4154;48.810;9.012;2024-02-15T13:52:42;1.30;;;1.10;;
8225;SDS011;4154;48.810;9.012;2024-02-15T13:55:12;1.60;;;1.20;;
8225;SDS011;4154;48.810;9.012;2024-02-15T13:57:40;1.90;;;1.20;;
8225;SDS011;4154;48.810;9.012;2024-02-15T14:00:10;2.28;;;1.20;;
8225;SDS011;4154;48.810;9.012;2024-02-15T14:02:39;2.83;;;1.20;;
8225;SDS011;4154;48.810;9.012;2024-02-15T14:05:06;3.72;;;2.60;;
8225;SDS011;4154;48.810;9.012;2024-02-15T14:07:34;7.70;;;5.07;;
8225;SDS011;4154;48.810;9.012;2024-02-15T14:10:06;2.60;;;2.33;;
8225;SDS011;4154;48.810;9.012;2024-02-15T14:12:32;3.22;;;1.70;;
8225;SDS011;4154;48.810;9.012;2024-02-15T14:14:59;1.23;;;1.13;;
8225;SDS011;4154;48.810;9.012;2024-02-15T14:17:26;2.17;;;1.20;;
8225;SDS011;4154;48.810;9.012;2024-02-15T14:19:53;3.22;;;1.38;;
8225;SDS011;4154;48.810;9.012;2024-02-15T14:22:18;1.27;;;1.17;;
8225;SDS011;4154;48.810;9.012;2024-02-15T14:24:48;3.15;;;1.20;;
8225;SDS011;4154;48.810;9.012;2024-02-15T14:27:15;2.70;;;1.45;;
8225;SDS011;4154;48.810;9.012;2024-02-15T14:29:40;2.35;;;1.30;;
8225;SDS011;4154;48.810;9.012;2024-02-15T14:32:26;1.83;;;1.42;;
8225;SDS011;4154;48.810;9.012;2024-02-15T14:35:10;2.63;;;1.63;;
8225;SDS011;4154;48.810;9.012;2024-02-15T14:37:36;1.60;;;1.27;;
8225;SDS011;4154;48.810;9.012;2024-02-15T14:40:05;2.45;;;1.40;;
8225;SDS011;4154;48.810;9.012;2024-02-15T14:42:32;1.60;;;1.30;;
8225;SDS011;4154;48.810;9.012;2024-02-15T14:44:59;1.63;;;1.40;;
8225;SDS011;4154;48.810;9.012;2024-02-15T14:47:25;1.90;;;1.52;;
8225;SDS011;4154;48.810;9.012;2024-02-15T14:49:50;1.98;;;1.50;;
8225;SDS011;4154;48.810;9.012;2024-02-15T14:52:16;3.35;;;1.48;;
8225;SDS011;4154;48.810;9.012;2024-02-15T14:54:43;2.00;;;1.40;;
8225;SDS011;4154;48.810;9.012;2024-02-15T14:57:08;3.00;;;1.50;;
8225;SDS011;4154;48.810;9.012;2024-02-15T14:59:34;3.15;;;1.60;;
8225;SDS011;4154;48.810;9.012;2024-02-15T15:02:00;3.30;;;1.45;;
8225;SDS011;4154;48.810;9.012;2024-02-15T15:04:33;2.45;;;1.42;;
8225;SDS011;4154;48.810;9.012;2024-02-15T15:07:22;1.85;;;1.38;;
8225;SDS011;4154;48.810;9.012;2024-02-15T15:10:07;1.40;;;1.30;;
8225;SDS011;4154;48.810;9.012;2024-02-15T15:12:53;1.90;;;1.33;;
8225;SDS011;4154;48.810;9.012;2024-02-15T15:15:19;1.55;;;1.33;;
8225;SDS011;4154;48.810;9.012;2024-02-15T15:17:47;1.50;;;1.27;;
8225;SDS011;4154;48.810;9.012;2024-02-15T15:20:14;3.65;;;1.40;;
8225;SDS011;4154;48.810;9.012;2024-02-15T15:22:41;1.75;;;1.40;;
8225;SDS011;4154;48.810;9.012;2024-02-15T15:25:07;2.60;;;1.30;;
8225;SDS011;4154;48.810;9.012;2024-02-15T15:27:34;1.92;;;1.42;;
8225;SDS011;4154;48.810;9.012;2024-02-15T15:30:02;2.42;;;1.45;;
8225;SDS011;4154;48.810;9.012;2024-02-15T15:32:29;1.92;;;1.42;;
8225;SDS011;4154;48.810;9.012;2024-02-15T15:34:55;3.00;;;1.50;;
8225;SDS011;4154;48.810;9.012;2024-02-15T15:37:21;1.30;;;1.10;;
8225;SDS011;4154;48.810;9.012;2024-02-15T15:39:48;1.90;;;1.50;;
8225;SDS011;4154;48.810;9.012;2024-02-15T15:42:15;3.25;;;1.35;;
8225;SDS011;4154;48.810;9.012;2024-02-15T15:44:41;2.83;;;1.42;;
8225;SDS011;4154;48.810;9.012;2024-02-15T15:47:07;1.60;;;1.50;;